Time;durP1;ratioP1;P1;durP2;ratioP2;P2;SDS_P1;SDS_P2;PMS_P1;PMS_P2;Temp;Humidity;BMP_temperature;BMP_pressure;BME280_temperature;BME280_humidity;BME280_pressure;Samples;Min_cycle;Max_cycle;Signal;HPM_P1;HPM_P2
2021/11/14 00:01:14;;;;;;;;;;;;;;;;;;6226368;23;19924;-90
2021/11/14 00:03:41;;;;;;;;;;;;;;;;;;6252189;23;20088;-90
2021/11/14 00:06:07;;;;;;;;;;;;;;;;;;6252238;23;19923;-90
2021/11/14 00:08:33;;;;;;;;;;;;;;;;;;6252682;23;19930;-91
2021/11/14 00:11:00;;;;;;;;;;;;;;;;;;6252548;23;19954;-90
2021/11/14 00:13:26;;;;;;;;;;;;;;;;;;6253903;23;20227;-90
2021/11/14 00:15:53;;;;;;;;;;;;;;;;;;6253978;23;19977;-91
2021/11/14 00:18:19;;;;;;;;;;;;;;;;;;6254026;23;19980;-89
2021/11/14 00:20:45;;;;;;;;;;;;;;;;;;6252995;23;19931;-89
2021/11/14 00:23:11;;;;;;;;;;;;;;;;;;6253004;23;19969;-89
2021/11/14 00:25:38;;;;;;;;;;;;;;;;;;6253491;23;19919;-91
2021/11/14 00:28:04;;;;;;;;;;;;;;;;;;6255288;23;19920;-89
2021/11/14 00:30:30;;;;;;;;;;;;;;;;;;6254165;23;19926;-89
2021/11/14 00:32:56;;;;;;;;;;;;;;;;;;6253960;23;19974;-90
2021/11/14 00:35:23;;;;;;;;;;;;;;;;;;6253951;23;19924;-90
2021/11/14 00:37:49;;;;;;;;;;;;;;;;;;6254361;23;19965;-89
2021/11/14 00:40:16;;;;;;;;;;;;;;;;;;6254191;23;20023;-89
2021/11/14 00:42:42;;;;;;;;;;;;;;;;;;6251131;23;19977;-90
2021/11/14 00:45:08;;;;;;;;;;;;;;;;;;6251421;23;19973;-90
2021/11/14 00:47:34;;;;;;;;;;;;;;;;;;6250961;23;19946;-90
2021/11/14 00:50:06;;;;;;;;;;;;;;;;;;6251785;23;19987;-90
2021/11/14 00:52:32;;;;;;;;;;;;;;;;;;6254077;23;19923;-90
2021/11/14 00:54:59;;;;;;;;;;;;;;;;;;6254711;23;19943;-89
2021/11/14 00:57:25;;;;;;;;;;;;;;;;;;6253756;23;19977;-89
2021/11/14 00:59:51;;;;;;;;;;;;;;;;;;6253254;23;19919;-89
2021/11/14 01:02:17;;;;;;;;;;;;;;;;;;6253293;23;19923;-89
2021/11/14 01:04:44;;;;;;;;;;;;;;;;;;6253208;23;19931;-88
2021/11/14 01:07:10;;;;;;;;;;;;;;;;;;6253012;23;19924;-89
2021/11/14 01:09:36;;;;;;;;;;;;;;;;;;6251909;23;20369;-89
2021/11/14 01:12:03;;;;;;;;;;;;;;;;;;6251981;23;20634;-90
2021/11/14 01:14:29;;;;;;;;;;;;;;;;;;6252247;23;20574;-90
2021/11/14 01:16:55;;;;;;;;;;;;;;;;;;6252214;23;19981;-91
2021/11/14 01:19:21;;;;;;;;;;;;;;;;;;6252307;23;19920;-89
2021/11/14 01:21:48;;;;;;;;;;;;;;;;;;6251156;23;19927;-90
2021/11/14 01:24:14;;;;;;;;;;;;;;;;;;6250181;23;19928;-90
2021/11/14 01:26:40;;;;;;;;;;;;;;;;;;6253502;23;19993;-90
2021/11/14 01:29:06;;;;;;;;;;;;;;;;;;6254525;23;19993;-89
2021/11/14 01:31:33;;;;;;;;;;;;;;;;;;6253580;23;19923;-90
2021/11/14 01:33:59;;;;;;;;;;;;;;;;;;6252704;23;20345;-90
2021/11/14 01:36:25;;;;;;;;;;;;;;;;;;6253166;23;20000;-89
2021/11/14 01:38:51;;;;;;;;;;;;;;;;;;6253442;23;19982;-90
2021/11/14 01:41:18;;;;;;;;;;;;;;;;;;6253094;23;19979;-89
2021/11/14 01:43:44;;;;;;;;;;;;;;;;;;6253431;23;19978;-89
2021/11/14 01:46:10;;;;;;;;;;;;;;;;;;6253496;23;19923;-89
2021/11/14 01:48:36;;;;;;;;;;;;;;;;;;6252999;23;19981;-89
2021/11/14 01:51:03;;;;;;;;;;;;;;;;;;6257399;23;19970;-90
2021/11/14 01:53:30;;;;;;;;;;;;;;;;;;6255756;23;19946;-89
2021/11/14 01:55:56;;;;;;;;;;;;;;;;;;6253068;23;19923;-90
2021/11/14 01:58:22;;;;;;;;;;;;;;;;;;6252088;23;19923;-90
2021/11/14 02:00:48;;;;;;;;;;;;;;;;;;6252831;23;19924;-89
2021/11/14 02:03:15;;;;;;;;;;;;;;;;;;6253433;23;19927;-90
2021/11/14 02:05:41;;;;;;;;;;;;;;;;;;6253418;23;19923;-91
2021/11/14 02:08:07;;;;;;;;;;;;;;;;;;6252014;23;20400;-89
2021/11/14 02:10:33;;;;;;;;;;;;;;;;;;6251627;23;20673;-90
2021/11/14 02:13:00;;;;;;;;;;;;;;;;;;6250606;23;19923;-90
2021/11/14 02:15:26;;;;;;;;;;;;;;;;;;6250717;23;19966;-89
2021/11/14 02:17:52;;;;;;;;;;;;;;;;;;6251685;23;19924;-89
2021/11/14 02:20:18;;;;;;;;;;;;;;;;;;6251367;23;19924;-91
2021/11/14 02:22:45;;;;;;;;;;;;;;;;;;6254184;23;19946;-90
2021/11/14 02:25:11;;;;;;;;;;;;;;;;;;6253296;23;19924;-90
2021/11/14 02:27:37;;;;;;;;;;;;;;;;;;6252323;23;19923;-89
2021/11/14 02:30:03;;;;;;;;;;;;;;;;;;6253098;23;19946;-89
2021/11/14 02:32:30;;;;;;;;;;;;;;;;;;6252709;23;19943;-90
2021/11/14 02:34:56;;;;;;;;;;;;;;;;;;6252493;23;19943;-91
2021/11/14 02:37:22;;;;;;;;;;;;;;;;;;6252632;23;19947;-90
2021/11/14 02:39:48;;;;;;;;;;;;;;;;;;6252576;23;19942;-89
2021/11/14 02:42:14;;;;;;;;;;;;;;;;;;6253868;23;20443;-90
2021/11/14 02:44:41;;;;;;;;;;;;;;;;;;6254000;23;20337;-91
2021/11/14 02:47:07;;;;;;;;;;;;;;;;;;6253304;23;19923;-90
2021/11/14 02:49:33;;;;;;;;;;;;;;;;;;6253633;23;19924;-91
2021/11/14 02:51:59;;;;;;;;;;;;;;;;;;6253684;23;19981;-89
2021/11/14 02:54:26;;;;;;;;;;;;;;;;;;6254210;23;19974;-91
2021/11/14 02:56:52;;;;;;;;;;;;;;;;;;6264408;23;19920;-91
2021/11/14 02:59:18;;;;;;;;;;;;;;;;;;6262245;23;19923;-90
2021/11/14 03:01:44;;;;;;;;;;;;;;;;;;6250971;23;19927;-90
2021/11/14 03:04:11;;;;;;;;;;;;;;;;;;6250082;23;19970;-90
2021/11/14 03:06:37;;;;;;;;;;;;;;;;;;6250483;23;19943;-89
2021/11/14 03:09:03;;;;;;;;;;;;;;;;;;6250834;23;19950;-90
2021/11/14 03:11:29;;;;;;;;;;;;;;;;;;6252581;23;19931;-90
2021/11/14 03:13:56;;;;;;;;;;;;;;;;;;6253453;23;19950;-89
2021/11/14 03:16:22;;;;;;;;;;;;;;;;;;6253082;23;19946;-90
2021/11/14 03:18:48;;;;;;;;;;;;;;;;;;6252357;23;19946;-90
2021/11/14 03:21:14;;;;;;;;;;;;;;;;;;6252387;23;20322;-90
2021/11/14 03:23:41;;;;;;;;;;;;;;;;;;6251839;23;19942;-89
2021/11/14 03:26:07;;;;;;;;;;;;;;;;;;6252881;23;20330;-89
2021/11/14 03:28:33;;;;;;;;;;;;;;;;;;6252767;23;20326;-90
2021/11/14 03:30:59;;;;;;;;;;;;;;;;;;6253704;23;20438;-90
2021/11/14 03:33:26;;;;;;;;;;;;;;;;;;6253017;23;19923;-90
2021/11/14 03:35:52;;;;;;;;;;;;;;;;;;6252085;23;19989;-90
2021/11/14 03:38:18;;;;;;;;;;;;;;;;;;6250624;23;19924;-89
2021/11/14 03:40:44;;;;;;;;;;;;;;;;;;6251586;23;19986;-89
2021/11/14 03:43:11;;;;;;;;;;;;;;;;;;6252231;23;19978;-90
2021/11/14 03:45:37;;;;;;;;;;;;;;;;;;6252287;23;19943;-90
2021/11/14 03:48:03;;;;;;;;;;;;;;;;;;6254138;23;19974;-90
2021/11/14 03:50:30;;;;;;;;;;;;;;;;;;6254613;23;19919;-90
2021/11/14 03:52:56;;;;;;;;;;;;;;;;;;6254849;23;19942;-90
2021/11/14 03:55:22;;;;;;;;;;;;;;;;;;6254261;23;19920;-90
2021/11/14 03:57:49;;;;;;;;;;;;;;;;;;6254686;23;19923;-90
2021/11/14 04:00:15;;;;;;;;;;;;;;;;;;6255558;23;19920;-89
2021/11/14 04:02:41;;;;;;;;;;;;;;;;;;6252184;23;20792;-90
2021/11/14 04:05:07;;;;;;;;;;;;;;;;;;6251565;23;20520;-90
2021/11/14 04:07:34;;;;;;;;;;;;;;;;;;6253811;23;19978;-91
2021/11/14 04:10:00;;;;;;;;;;;;;;;;;;6254079;23;19970;-90
2021/11/14 04:12:26;;;;;;;;;;;;;;;;;;6251634;23;19990;-90
2021/11/14 04:14:53;;;;;;;;;;;;;;;;;;6251801;23;19946;-92
2021/11/14 04:17:19;;;;;;;;;;;;;;;;;;6254444;23;19924;-91
2021/11/14 04:19:45;;;;;;;;;;;;;;;;;;6254707;23;20716;-91
2021/11/14 04:22:11;;;;;;;;;;;;;;;;;;6254931;23;19924;-91
2021/11/14 04:24:38;;;;;;;;;;;;;;;;;;6254666;23;19920;-90
2021/11/14 04:27:04;;;;;;;;;;;;;;;;;;6252982;23;19970;-91
2021/11/14 04:29:30;;;;;;;;;;;;;;;;;;6252377;23;19919;-90
2021/11/14 04:31:57;;;;;;;;;;;;;;;;;;6253024;23;19924;-90
2021/11/14 04:34:23;;;;;;;;;;;;;;;;;;6252305;23;19932;-89
2021/11/14 04:36:49;;;;;;;;;;;;;;;;;;6253146;23;19923;-90
2021/11/14 04:39:15;;;;;;;;;;;;;;;;;;6253378;23;19954;-90
2021/11/14 04:41:42;;;;;;;;;;;;;;;;;;6253823;23;19923;-91
2021/11/14 04:44:08;;;;;;;;;;;;;;;;;;6253791;23;19923;-91
2021/11/14 04:46:34;;;;;;;;;;;;;;;;;;6253991;22;19924;-90
2021/11/14 04:49:00;;;;;;;;;;;;;;;;;;6253094;23;19998;-90
2021/11/14 04:51:27;;;;;;;;;;;;;;;;;;6254449;23;19974;-91
2021/11/14 04:53:53;;;;;;;;;;;;;;;;;;6253400;23;19966;-91
2021/11/14 04:56:20;;;;;;;;;;;;;;;;;;6253787;23;19943;-92
2021/11/14 04:58:46;;;;;;;;;;;;;;;;;;6253698;23;19919;-91
2021/11/14 05:01:12;;;;;;;;;;;;;;;;;;6252738;23;19919;-92
2021/11/14 05:03:38;;;;;;;;;;;;;;;;;;6252635;23;19920;-91
2021/11/14 05:06:08;;;;;;;;;;;;;;;;;;6253682;23;19923;-91
2021/11/14 05:08:35;;;;;;;;;;;;;;;;;;6226943;23;19931;-91
2021/11/14 05:11:01;;;;;;;;;;;;;;;;;;6254500;23;19919;-90
2021/11/14 05:13:27;;;;;;;;;;;;;;;;;;6252255;23;19923;-91
2021/11/14 05:15:54;;;;;;;;;;;;;;;;;;6252717;23;19923;-91
2021/11/14 05:18:20;;;;;;;;;;;;;;;;;;6253750;23;19923;-91
2021/11/14 05:20:46;;;;;;;;;;;;;;;;;;6226775;23;20131;-91
2021/11/14 05:23:15;;;;;;;;;;;;;;;;;;6252549;23;19923;-92
2021/11/14 05:25:42;;;;;;;;;;;;;;;;;;6254166;23;19931;-90
2021/11/14 05:28:08;;;;;;;;;;;;;;;;;;6258143;23;19919;-92
2021/11/14 05:30:34;;;;;;;;;;;;;;;;;;6255579;23;19915;-91
2021/11/14 05:33:00;;;;;;;;;;;;;;;;;;6246063;23;19919;-90
2021/11/14 05:35:27;;;;;;;;;;;;;;;;;;6253276;23;19924;-91
2021/11/14 05:37:53;;;;;;;;;;;;;;;;;;6253880;23;19919;-91
2021/11/14 05:40:19;;;;;;;;;;;;;;;;;;6250928;23;19946;-92
2021/11/14 05:42:45;;;;;;;;;;;;;;;;;;6248397;23;19923;-92
2021/11/14 05:45:12;;;;;;;;;;;;;;;;;;6248663;23;19934;-92
2021/11/14 05:47:38;;;;;;;;;;;;;;;;;;6251221;23;19923;-90
2021/11/14 05:50:04;;;;;;;;;;;;;;;;;;6250610;23;19958;-92
2021/11/14 05:52:31;;;;;;;;;;;;;;;;;;6249275;23;19950;-92
2021/11/14 05:54:57;;;;;;;;;;;;;;;;;;6248641;23;19993;-92
2021/11/14 05:57:23;;;;;;;;;;;;;;;;;;6246195;23;19973;-90
2021/11/14 05:59:56;;;;;;;;;;;;;;;;;;6247104;23;19999;-92
2021/11/14 06:02:34;;;;;;;;;;;;;;;;;;6248886;23;20573;-93
2021/11/14 06:05:10;;;;;;;;;;;;;;;;;;6249107;23;19981;-94
2021/11/14 06:07:36;;;;;;;;;;;;;;;;;;6251920;23;19947;-92
2021/11/14 06:10:03;;;;;;;;;;;;;;;;;;6251538;23;19924;-92
2021/11/14 06:12:29;;;;;;;;;;;;;;;;;;6253435;23;19924;-93
2021/11/14 06:14:55;;;;;;;;;;;;;;;;;;6254282;23;19924;-94
2021/11/14 06:17:22;;;;;;;;;;;;;;;;;;6258279;23;19943;-93
2021/11/14 06:19:48;;;;;;;;;;;;;;;;;;6254446;23;20010;-91
2021/11/14 06:22:14;;;;;;;;;;;;;;;;;;6251834;23;19931;-92
2021/11/14 06:24:41;;;;;;;;;;;;;;;;;;6250809;23;19924;-91
2021/11/14 06:27:07;;;;;;;;;;;;;;;;;;6253021;23;20349;-91
2021/11/14 06:29:33;;;;;;;;;;;;;;;;;;6253021;23;19924;-92
2021/11/14 06:31:59;;;;;;;;;;;;;;;;;;6251215;23;19975;-92
2021/11/14 06:34:26;;;;;;;;;;;;;;;;;;6250738;23;19927;-92
2021/11/14 06:36:52;;;;;;;;;;;;;;;;;;6252969;23;19924;-92
2021/11/14 06:39:19;;;;;;;;;;;;;;;;;;6252711;23;19930;-91
2021/11/14 06:41:45;;;;;;;;;;;;;;;;;;6252181;23;20353;-92
2021/11/14 06:44:11;;;;;;;;;;;;;;;;;;6250183;23;20568;-91
2021/11/14 06:46:38;;;;;;;;;;;;;;;;;;6252256;23;19931;-90
2021/11/14 06:49:04;;;;;;;;;;;;;;;;;;6252403;23;19923;-90
2021/11/14 06:51:30;;;;;;;;;;;;;;;;;;6253225;23;19924;-90
2021/11/14 06:53:56;;;;;;;;;;;;;;;;;;6252630;22;19923;-90
2021/11/14 06:56:23;;;;;;;;;;;;;;;;;;6252555;23;19947;-91
2021/11/14 06:58:49;;;;;;;;;;;;;;;;;;6252169;23;20156;-90
2021/11/14 07:01:15;;;;;;;;;;;;;;;;;;6253386;23;19923;-90
2021/11/14 07:03:42;;;;;;;;;;;;;;;;;;6253687;23;19920;-91
2021/11/14 07:06:08;;;;;;;;;;;;;;;;;;6253374;23;20352;-91
2021/11/14 07:08:34;;;;;;;;;;;;;;;;;;6252176;23;19920;-91
2021/11/14 07:11:01;;;;;;;;;;;;;;;;;;6251184;23;19919;-91
2021/11/14 07:13:27;;;;;;;;;;;;;;;;;;6251037;23;19920;-90
2021/11/14 07:15:53;;;;;;;;;;;;;;;;;;6250777;23;19923;-90
2021/11/14 07:18:19;;;;;;;;;;;;;;;;;;6251175;23;19982;-89
2021/11/14 07:20:45;;;;;;;;;;;;;;;;;;6252720;23;19982;-90
2021/11/14 07:23:12;;;;;;;;;;;;;;;;;;6254896;23;19927;-90
2021/11/14 07:25:38;;;;;;;;;;;;;;;;;;6252193;23;19923;-90
2021/11/14 07:28:05;;;;;;;;;;;;;;;;;;6254993;23;19923;-91
2021/11/14 07:30:32;;;;;;;;;;;;;;;;;;6254150;23;19924;-91
2021/11/14 07:32:59;;;;;;;;;;;;;;;;;;6255173;23;20308;-90
2021/11/14 07:35:25;;;;;;;;;;;;;;;;;;6254326;23;19923;-92
2021/11/14 07:37:51;;;;;;;;;;;;;;;;;;6254479;23;19927;-91
2021/11/14 07:40:17;;;;;;;;;;;;;;;;;;6254584;23;19927;-91
2021/11/14 07:42:45;;;;;;;;;;;;;;;;;;6249320;23;19924;-91
2021/11/14 07:45:11;;;;;;;;;;;;;;;;;;6250621;23;20322;-92
2021/11/14 07:47:37;;;;;;;;;;;;;;;;;;6254388;23;19977;-91
2021/11/14 07:50:03;;;;;;;;;;;;;;;;;;6253853;23;19970;-92
2021/11/14 07:52:31;;;;;;;;;;;;;;;;;;6254749;23;19923;-91
2021/11/14 07:54:57;;;;;;;;;;;;;;;;;;6253788;23;19923;-92
2021/11/14 07:57:24;;;;;;;;;;;;;;;;;;6254420;23;20329;-92
2021/11/14 07:59:50;;;;;;;;;;;;;;;;;;6254028;23;19981;-92
2021/11/14 08:02:16;;;;;;;;;;;;;;;;;;6253050;23;19967;-94
2021/11/14 08:04:42;;;;;;;;;;;;;;;;;;6252626;22;19919;-92
2021/11/14 08:07:09;;;;;;;;;;;;;;;;;;6250553;23;19951;-92
2021/11/14 08:09:35;;;;;;;;;;;;;;;;;;6254403;23;19946;-94
2021/11/14 08:12:01;;;;;;;;;;;;;;;;;;6253130;23;19950;-92
2021/11/14 08:14:27;;;;;;;;;;;;;;;;;;6253057;23;19931;-93
2021/11/14 08:16:54;;;;;;;;;;;;;;;;;;6253030;23;19924;-92
2021/11/14 08:19:20;;;;;;;;;;;;;;;;;;6252390;23;19923;-92
2021/11/14 08:21:46;;;;;;;;;;;;;;;;;;6253270;23;19950;-90
2021/11/14 08:24:12;;;;;;;;;;;;;;;;;;6252742;23;19931;-92
2021/11/14 08:26:39;;;;;;;;;;;;;;;;;;6253106;23;19919;-92
2021/11/14 08:29:05;;;;;;;;;;;;;;;;;;6252637;23;19920;-92
2021/11/14 08:31:31;;;;;;;;;;;;;;;;;;6255604;23;20234;-92
2021/11/14 08:33:59;;;;;;;;;;;;;;;;;;6252908;23;19977;-93
2021/11/14 08:36:27;;;;;;;;;;;;;;;;;;6253135;23;19946;-91
2021/11/14 08:38:53;;;;;;;;;;;;;;;;;;6251160;23;19946;-91
2021/11/14 08:41:19;;;;;;;;;;;;;;;;;;6251337;23;19923;-90
2021/11/14 08:43:45;;;;;;;;;;;;;;;;;;6253188;23;19924;-91
2021/11/14 08:46:12;;;;;;;;;;;;;;;;;;6252766;23;19946;-94
2021/11/14 08:48:38;;;;;;;;;;;;;;;;;;6252160;23;20286;-91
2021/11/14 08:51:04;;;;;;;;;;;;;;;;;;6252474;23;19933;-93
2021/11/14 08:53:30;;;;;;;;;;;;;;;;;;6253095;23;19931;-92
2021/11/14 08:55:57;;;;;;;;;;;;;;;;;;6252492;23;19946;-92
2021/11/14 08:58:23;;;;;;;;;;;;;;;;;;6251035;23;19950;-91
2021/11/14 09:00:49;;;;;;;;;;;;;;;;;;6250531;23;19946;-91
2021/11/14 09:03:15;;;;;;;;;;;;;;;;;;6252470;23;20003;-92
2021/11/14 09:05:42;;;;;;;;;;;;;;;;;;6252470;23;19919;-90
2021/11/14 09:08:08;;;;;;;;;;;;;;;;;;6249835;23;19923;-90
2021/11/14 09:10:34;;;;;;;;;;;;;;;;;;6244022;23;19924;-89
2021/11/14 09:13:00;;;;;;;;;;;;;;;;;;6246020;23;19924;-89
2021/11/14 09:15:27;;;;;;;;;;;;;;;;;;6249429;23;19951;-89
2021/11/14 09:17:53;;;;;;;;;;;;;;;;;;6251230;23;19950;-88
2021/11/14 09:20:21;;;;;;;;;;;;;;;;;;6252848;23;19924;-92
2021/11/14 09:22:47;;;;;;;;;;;;;;;;;;6253513;23;19923;-90
2021/11/14 09:25:14;;;;;;;;;;;;;;;;;;6252019;23;19919;-90
2021/11/14 09:27:40;;;;;;;;;;;;;;;;;;6250981;23;19998;-89
2021/11/14 09:30:06;;;;;;;;;;;;;;;;;;6249028;23;19923;-90
2021/11/14 09:32:33;;;;;;;;;;;;;;;;;;6248622;23;19950;-91
2021/11/14 09:34:59;;;;;;;;;;;;;;;;;;6246877;23;19954;-91
2021/11/14 09:37:25;;;;;;;;;;;;;;;;;;6250393;23;19946;-90
2021/11/14 09:39:51;;;;;;;;;;;;;;;;;;6251092;23;19962;-89
2021/11/14 09:42:18;;;;;;;;;;;;;;;;;;6252988;23;20030;-92
2021/11/14 09:44:44;;;;;;;;;;;;;;;;;;6226837;23;19923;-91
2021/11/14 09:47:10;;;;;;;;;;;;;;;;;;6253793;23;19920;-92
2021/11/14 09:49:36;;;;;;;;;;;;;;;;;;6253619;23;19920;-93
2021/11/14 09:52:03;;;;;;;;;;;;;;;;;;6254197;23;19919;-93
2021/11/14 09:54:29;;;;;;;;;;;;;;;;;;6253558;23;19927;-94
2021/11/14 09:56:55;;;;;;;;;;;;;;;;;;6253738;23;19920;-92
2021/11/14 09:59:22;;;;;;;;;;;;;;;;;;6253346;23;19953;-91
2021/11/14 10:01:48;;;;;;;;;;;;;;;;;;6251371;23;19982;-93
2021/11/14 10:04:14;;;;;;;;;;;;;;;;;;6249892;23;20338;-91
2021/11/14 10:06:40;;;;;;;;;;;;;;;;;;6254298;23;20296;-91
2021/11/14 10:09:07;;;;;;;;;;;;;;;;;;6253010;23;20116;-90
2021/11/14 10:11:33;;;;;;;;;;;;;;;;;;6253612;23;19927;-90
2021/11/14 10:13:59;;;;;;;;;;;;;;;;;;6253997;23;19924;-91
2021/11/14 10:16:25;;;;;;;;;;;;;;;;;;6253656;23;19931;-90
2021/11/14 10:18:52;;;;;;;;;;;;;;;;;;6250551;23;19931;-91
2021/11/14 10:21:18;;;;;;;;;;;;;;;;;;6249062;23;19928;-91
2021/11/14 10:23:44;;;;;;;;;;;;;;;;;;6248656;23;19942;-92
2021/11/14 10:26:11;;;;;;;;;;;;;;;;;;6250689;23;19950;-92
2021/11/14 10:28:37;;;;;;;;;;;;;;;;;;6249723;23;19924;-91
2021/11/14 10:31:04;;;;;;;;;;;;;;;;;;6247064;23;20127;-91
2021/11/14 10:33:30;;;;;;;;;;;;;;;;;;6250863;23;19928;-92
2021/11/14 10:35:56;;;;;;;;;;;;;;;;;;6251766;23;19930;-92
2021/11/14 10:38:22;;;;;;;;;;;;;;;;;;6255288;23;19923;-91
2021/11/14 10:40:49;;;;;;;;;;;;;;;;;;6249701;23;19923;-92
2021/11/14 10:43:16;;;;;;;;;;;;;;;;;;6254241;23;19919;-94
2021/11/14 10:45:43;;;;;;;;;;;;;;;;;;6255172;23;19943;-95
2021/11/14 10:48:10;;;;;;;;;;;;;;;;;;6258870;23;19919;-96
2021/11/14 10:50:36;;;;;;;;;;;;;;;;;;6260373;23;19924;-94
2021/11/14 10:53:03;;;;;;;;;;;;;;;;;;6264888;22;19923;-95
2021/11/14 10:55:30;;;;;;;;;;;;;;;;;;6252076;23;20344;-96
2021/11/14 10:57:56;;;;;;;;;;;;;;;;;;6258706;23;19930;-93
2021/11/14 11:00:22;;;;;;;;;;;;;;;;;;6258840;23;19993;-96
2021/11/14 11:02:48;;;;;;;;;;;;;;;;;;6261488;23;19927;-94
2021/11/14 11:05:15;;;;;;;;;;;;;;;;;;6259943;23;19926;-95
2021/11/14 11:07:41;;;;;;;;;;;;;;;;;;6260355;23;19981;-95
2021/11/14 11:10:07;;;;;;;;;;;;;;;;;;6259677;23;19930;-92
2021/11/14 11:12:34;;;;;;;;;;;;;;;;;;6256879;23;19926;-93
2021/11/14 11:15:01;;;;;;;;;;;;;;;;;;6259122;23;19950;-94
2021/11/14 11:17:28;;;;;;;;;;;;;;;;;;6261634;23;19915;-94
2021/11/14 11:19:55;;;;;;;;;;;;;;;;;;6235881;23;19919;-92
2021/11/14 11:22:21;;;;;;;;;;;;;;;;;;6248824;23;19994;-91
2021/11/14 11:24:47;;;;;;;;;;;;;;;;;;6253639;22;19919;-93
2021/11/14 11:27:13;;;;;;;;;;;;;;;;;;6254754;23;19920;-94
2021/11/14 11:29:40;;;;;;;;;;;;;;;;;;6249026;23;19929;-95
2021/11/14 11:32:06;;;;;;;;;;;;;;;;;;6252653;23;19930;-94
2021/11/14 11:34:32;;;;;;;;;;;;;;;;;;6257853;23;19923;-95
2021/11/14 11:36:59;;;;;;;;;;;;;;;;;;6252651;23;19927;-90
2021/11/14 11:39:25;;;;;;;;;;;;;;;;;;6251861;23;20484;-91
2021/11/14 11:41:51;;;;;;;;;;;;;;;;;;6255888;23;19920;-90
2021/11/14 11:44:17;;;;;;;;;;;;;;;;;;6257263;23;19919;-91
2021/11/14 11:46:44;;;;;;;;;;;;;;;;;;6253971;23;19927;-92
2021/11/14 11:49:14;;;;;;;;;;;;;;;;;;6254594;23;19923;-92
2021/11/14 11:51:41;;;;;;;;;;;;;;;;;;6254059;23;19926;-92
2021/11/14 11:54:07;;;;;;;;;;;;;;;;;;6252186;22;19923;-92
2021/11/14 11:56:34;;;;;;;;;;;;;;;;;;6253866;23;19927;-93
2021/11/14 11:59:00;;;;;;;;;;;;;;;;;;6255064;23;19920;-93
2021/11/14 12:01:26;;;;;;;;;;;;;;;;;;6255479;23;19951;-93
2021/11/14 12:03:53;;;;;;;;;;;;;;;;;;6253134;23;19919;-93
2021/11/14 12:06:21;;;;;;;;;;;;;;;;;;6254398;23;19919;-92
2021/11/14 12:08:47;;;;;;;;;;;;;;;;;;6253839;23;19927;-92
2021/11/14 12:11:13;;;;;;;;;;;;;;;;;;6253812;23;19924;-93
2021/11/14 12:13:40;;;;;;;;;;;;;;;;;;6253826;23;19923;-93
2021/11/14 12:16:06;;;;;;;;;;;;;;;;;;6253130;23;19924;-91
2021/11/14 12:18:32;;;;;;;;;;;;;;;;;;6251979;23;19947;-94
2021/11/14 12:20:59;;;;;;;;;;;;;;;;;;6227019;23;19982;-94
2021/11/14 12:23:27;;;;;;;;;;;;;;;;;;6229714;23;19923;-92
2021/11/14 12:25:54;;;;;;;;;;;;;;;;;;6253597;23;19923;-92
2021/11/14 12:28:23;;;;;;;;;;;;;;;;;;6250958;23;19931;-92
2021/11/14 12:30:49;;;;;;;;;;;;;;;;;;6251551;23;20010;-91
2021/11/14 12:33:15;;;;;;;;;;;;;;;;;;6252717;23;19919;-91
2021/11/14 12:35:45;;;;;;;;;;;;;;;;;;6253493;23;19942;-92
2021/11/14 12:38:11;;;;;;;;;;;;;;;;;;6250983;23;21111;-92
2021/11/14 12:40:38;;;;;;;;;;;;;;;;;;6251977;23;19919;-90
2021/11/14 12:43:04;;;;;;;;;;;;;;;;;;6253593;23;19920;-90
2021/11/14 12:45:30;;;;;;;;;;;;;;;;;;6253117;23;19923;-92
2021/11/14 12:47:56;;;;;;;;;;;;;;;;;;6251955;23;20385;-91
2021/11/14 12:50:23;;;;;;;;;;;;;;;;;;6251717;23;19970;-91
2021/11/14 12:52:49;;;;;;;;;;;;;;;;;;6256002;23;19946;-91
2021/11/14 12:55:16;;;;;;;;;;;;;;;;;;6254149;23;19923;-93
2021/11/14 12:57:42;;;;;;;;;;;;;;;;;;6260253;23;19939;-94
2021/11/14 13:00:08;;;;;;;;;;;;;;;;;;6230840;23;19959;-94
2021/11/14 13:02:35;;;;;;;;;;;;;;;;;;6251739;23;20010;-92
2021/11/14 13:05:01;;;;;;;;;;;;;;;;;;6251539;23;19924;-91
2021/11/14 13:07:29;;;;;;;;;;;;;;;;;;6253685;23;19923;-91
2021/11/14 13:09:55;;;;;;;;;;;;;;;;;;6253435;23;19947;-92
2021/11/14 13:12:22;;;;;;;;;;;;;;;;;;6253660;23;19934;-94
2021/11/14 13:14:48;;;;;;;;;;;;;;;;;;6255630;23;19939;-93
2021/11/14 13:17:16;;;;;;;;;;;;;;;;;;6256109;23;19930;-94
2021/11/14 13:19:43;;;;;;;;;;;;;;;;;;6254609;23;19943;-93
2021/11/14 13:22:09;;;;;;;;;;;;;;;;;;6255948;23;19923;-92
2021/11/14 13:24:36;;;;;;;;;;;;;;;;;;6254518;23;19949;-93
2021/11/14 13:27:06;;;;;;;;;;;;;;;;;;6252084;23;19923;-94
2021/11/14 13:29:32;;;;;;;;;;;;;;;;;;6253033;23;19924;-92
2021/11/14 13:31:58;;;;;;;;;;;;;;;;;;6253996;23;19951;-92
2021/11/14 13:34:24;;;;;;;;;;;;;;;;;;6251569;23;19946;-93
2021/11/14 13:36:51;;;;;;;;;;;;;;;;;;6252940;23;19947;-94
2021/11/14 13:39:17;;;;;;;;;;;;;;;;;;6252941;23;19923;-92
2021/11/14 13:41:43;;;;;;;;;;;;;;;;;;6253098;23;19927;-93
2021/11/14 13:44:09;;;;;;;;;;;;;;;;;;6254058;23;19998;-92
2021/11/14 13:46:36;;;;;;;;;;;;;;;;;;6255998;23;19985;-92
2021/11/14 13:49:02;;;;;;;;;;;;;;;;;;6252837;23;19923;-93
2021/11/14 13:51:28;;;;;;;;;;;;;;;;;;6226710;23;19923;-93
2021/11/14 13:53:55;;;;;;;;;;;;;;;;;;6252747;23;19923;-93
2021/11/14 13:56:21;;;;;;;;;;;;;;;;;;6252226;23;19919;-92
2021/11/14 13:58:51;;;;;;;;;;;;;;;;;;6254588;23;19923;-90
2021/11/14 14:01:17;;;;;;;;;;;;;;;;;;6253265;23;19923;-92
2021/11/14 14:03:44;;;;;;;;;;;;;;;;;;6250666;23;20170;-94
2021/11/14 14:06:11;;;;;;;;;;;;;;;;;;6251853;23;19963;-94
2021/11/14 14:08:38;;;;;;;;;;;;;;;;;;6254253;23;19951;-93
2021/11/14 14:11:05;;;;;;;;;;;;;;;;;;6255734;23;19920;-93
2021/11/14 14:13:33;;;;;;;;;;;;;;;;;;6258836;23;19924;-95
2021/11/14 14:15:59;;;;;;;;;;;;;;;;;;6253834;23;19954;-95
2021/11/14 14:18:26;;;;;;;;;;;;;;;;;;6252667;23;19923;-92
2021/11/14 14:20:52;;;;;;;;;;;;;;;;;;6257745;23;19943;-93
2021/11/14 14:23:18;;;;;;;;;;;;;;;;;;6254190;23;20002;-95
2021/11/14 14:25:44;;;;;;;;;;;;;;;;;;6254719;23;19927;-94
2021/11/14 14:28:11;;;;;;;;;;;;;;;;;;6254012;23;19943;-94
2021/11/14 14:30:46;;;;;;;;;;;;;;;;;;6258987;23;19919;-94
2021/11/14 14:33:12;;;;;;;;;;;;;;;;;;6257790;23;19982;-94
2021/11/14 14:35:38;;;;;;;;;;;;;;;;;;6250599;23;19924;-94
2021/11/14 14:38:05;;;;;;;;;;;;;;;;;;6250437;23;19930;-92
2021/11/14 14:40:32;;;;;;;;;;;;;;;;;;6255222;23;19924;-91
2021/11/14 14:42:58;;;;;;;;;;;;;;;;;;6251934;23;19923;-93
2021/11/14 14:45:24;;;;;;;;;;;;;;;;;;6251806;23;19923;-95
2021/11/14 14:47:51;;;;;;;;;;;;;;;;;;6253478;23;20249;-94
2021/11/14 14:50:18;;;;;;;;;;;;;;;;;;6249304;23;19923;-91
2021/11/14 14:52:44;;;;;;;;;;;;;;;;;;6255425;23;19924;-93
2021/11/14 14:55:10;;;;;;;;;;;;;;;;;;6254250;23;19947;-92
2021/11/14 14:57:37;;;;;;;;;;;;;;;;;;6255181;23;19939;-90
2021/11/14 15:00:03;;;;;;;;;;;;;;;;;;6252877;23;19923;-89
2021/11/14 15:02:29;;;;;;;;;;;;;;;;;;6251269;23;19924;-90
2021/11/14 15:04:55;;;;;;;;;;;;;;;;;;6250249;23;19978;-90
2021/11/14 15:07:21;;;;;;;;;;;;;;;;;;6251943;23;19974;-90
2021/11/14 15:09:48;;;;;;;;;;;;;;;;;;6253016;23;19947;-90
2021/11/14 15:12:14;;;;;;;;;;;;;;;;;;6252510;23;19947;-90
2021/11/14 15:14:40;;;;;;;;;;;;;;;;;;6252554;23;19947;-90
2021/11/14 15:17:06;;;;;;;;;;;;;;;;;;6252115;23;19942;-91
2021/11/14 15:19:33;;;;;;;;;;;;;;;;;;6252547;23;19923;-92
2021/11/14 15:21:59;;;;;;;;;;;;;;;;;;6258606;23;20350;-93
2021/11/14 15:24:26;;;;;;;;;;;;;;;;;;6257430;23;19950;-94
2021/11/14 15:26:53;;;;;;;;;;;;;;;;;;6262068;23;19907;-95
2021/11/14 15:29:19;;;;;;;;;;;;;;;;;;6263100;23;19920;-94
2021/11/14 15:31:45;;;;;;;;;;;;;;;;;;6254777;23;19920;-93
2021/11/14 15:34:12;;;;;;;;;;;;;;;;;;6251632;23;19923;-91
2021/11/14 15:36:38;;;;;;;;;;;;;;;;;;6253253;23;19986;-94
2021/11/14 15:39:04;;;;;;;;;;;;;;;;;;6253242;23;19924;-92
2021/11/14 15:41:32;;;;;;;;;;;;;;;;;;6254150;23;20763;-96
2021/11/14 15:43:59;;;;;;;;;;;;;;;;;;6264313;23;19939;-96
2021/11/14 15:46:27;;;;;;;;;;;;;;;;;;6257840;23;19950;-96
2021/11/14 15:48:53;;;;;;;;;;;;;;;;;;6259260;23;19919;-95
2021/11/14 15:51:19;;;;;;;;;;;;;;;;;;6259336;23;19920;-94
2021/11/14 15:53:46;;;;;;;;;;;;;;;;;;6255344;23;19947;-92
2021/11/14 15:56:12;;;;;;;;;;;;;;;;;;6255000;23;19927;-91
2021/11/14 15:58:38;;;;;;;;;;;;;;;;;;6255369;23;19924;-94
2021/11/14 16:01:04;;;;;;;;;;;;;;;;;;6254402;23;20418;-91
2021/11/14 16:03:31;;;;;;;;;;;;;;;;;;6249672;23;20075;-90
2021/11/14 16:05:58;;;;;;;;;;;;;;;;;;6250959;23;20218;-94
2021/11/14 16:08:24;;;;;;;;;;;;;;;;;;6250162;23;19919;-91
2021/11/14 16:10:50;;;;;;;;;;;;;;;;;;6249392;23;19920;-92
2021/11/14 16:13:17;;;;;;;;;;;;;;;;;;6255187;23;19943;-96
2021/11/14 16:15:43;;;;;;;;;;;;;;;;;;6261459;23;19998;-95
2021/11/14 16:18:09;;;;;;;;;;;;;;;;;;6267238;23;19914;-94
2021/11/14 16:20:36;;;;;;;;;;;;;;;;;;6265419;23;19955;-96
2021/11/14 16:23:15;;;;;;;;;;;;;;;;;;6241939;23;19910;-96
2021/11/14 16:25:41;;;;;;;;;;;;;;;;;;6268368;23;19923;-95
2021/11/14 16:28:08;;;;;;;;;;;;;;;;;;6255879;23;19938;-92
2021/11/14 16:30:34;;;;;;;;;;;;;;;;;;6252032;23;19923;-96
2021/11/14 16:33:01;;;;;;;;;;;;;;;;;;6254056;23;19929;-93
2021/11/14 16:35:27;;;;;;;;;;;;;;;;;;6253821;23;19924;-91
2021/11/14 16:37:53;;;;;;;;;;;;;;;;;;6253594;23;19923;-90
2021/11/14 16:40:19;;;;;;;;;;;;;;;;;;6253293;23;19923;-91